createdAt,value
2019-04-27T00:01:13.887Z,18.07
2019-04-27T00:04:00.427Z,18.33
2019-04-27T00:06:30.770Z,18.10
2019-04-27T00:09:01.214Z,18.57
2019-04-27T00:11:33.083Z,18.87
2019-04-27T00:14:03.728Z,17.87
2019-04-27T00:16:34.166Z,18.50
2019-04-27T00:19:04.515Z,17.93
2019-04-27T00:21:37.827Z,18.17
2019-04-27T00:24:06.703Z,18.03
2019-04-27T00:26:35.470Z,19.27
2019-04-27T00:29:04.276Z,18.47
2019-04-27T00:31:33.648Z,18.63
2019-04-27T00:34:03.558Z,18.83
2019-04-27T00:36:37.063Z,18.60
2019-04-27T00:39:24.853Z,19.17
2019-04-27T00:41:53.629Z,18.33
2019-04-27T00:44:23.704Z,19.57
2019-04-27T00:46:53.395Z,17.40
2019-04-27T00:49:23.792Z,18.77
2019-04-27T00:52:11.855Z,17.93
2019-04-27T00:54:40.555Z,18.43
2019-04-27T00:57:19.795Z,19.37
2019-04-27T00:59:50.131Z,19.87
2019-04-27T01:02:35.827Z,18.60
2019-04-27T01:05:06.965Z,19.57
2019-04-27T01:07:35.667Z,19.43
2019-04-27T01:10:06.867Z,19.20
2019-04-27T01:12:35.576Z,19.77
2019-04-27T01:15:05.175Z,18.40
2019-04-27T01:17:33.947Z,20.03
2019-04-27T01:20:02.644Z,19.13
2019-04-27T01:22:31.349Z,19.70
2019-04-27T01:24:59.970Z,19.73
2019-04-27T01:27:30.311Z,20.67
2019-04-27T01:29:59.007Z,20.07
2019-04-27T01:32:29.186Z,20.10
2019-04-27T01:34:59.175Z,19.87
2019-04-27T01:37:28.561Z,19.67
2019-04-27T01:39:58.954Z,19.53
2019-04-27T01:42:29.424Z,19.33
2019-04-27T01:44:59.511Z,20.47
2019-04-27T01:47:28.952Z,19.07
2019-04-27T01:49:58.487Z,19.10
2019-04-27T01:52:27.319Z,20.27
2019-04-27T01:54:56.023Z,19.53
2019-04-27T01:57:24.720Z,19.57
2019-04-27T01:59:53.495Z,18.07
2019-04-27T02:02:39.317Z,18.17
2019-04-27T02:05:18.993Z,18.50
2019-04-27T02:07:49.114Z,18.80
2019-04-27T02:10:19.126Z,17.40
2019-04-27T02:12:48.689Z,19.10
2019-04-27T02:15:19.035Z,18.80
2019-04-27T02:17:49.009Z,19.40
2019-04-27T02:20:19.725Z,19.40
2019-04-27T02:22:50.701Z,18.83
2019-04-27T02:25:21.107Z,18.20
2019-04-27T02:27:53.696Z,18.90
2019-04-27T02:30:40.941Z,18.97
2019-04-27T02:33:13.989Z,18.17
2019-04-27T02:35:44.145Z,18.03
2019-04-27T02:38:12.848Z,18.73
2019-04-27T02:40:55.852Z,19.47
2019-04-27T02:43:32.658Z,18.80
2019-04-27T02:46:01.432Z,17.90
2019-04-27T02:48:30.140Z,18.20
2019-04-27T02:51:03.471Z,19.07
2019-04-27T02:53:50.037Z,17.30
2019-04-27T02:56:20.269Z,18.33
2019-04-27T02:58:49.675Z,20.30
2019-04-27T03:01:20.220Z,18.47
2019-04-27T03:03:50.200Z,18.80
2019-04-27T03:06:19.894Z,20.37
2019-04-27T03:08:52.743Z,19.87
2019-04-27T03:11:23.008Z,19.50
2019-04-27T03:14:20.480Z,19.83
2019-04-27T03:16:51.955Z,17.73
2019-04-27T03:19:39.862Z,19.17
2019-04-27T03:22:19.900Z,20.47
2019-04-27T03:25:06.577Z,21.20
2019-04-27T03:27:40.646Z,20.60
2019-04-27T03:30:12.545Z,18.40
2019-04-27T03:32:43.141Z,21.60
2019-04-27T03:35:13.259Z,19.37
2019-04-27T03:37:42.298Z,19.63
2019-04-27T03:40:11.217Z,19.77
2019-04-27T03:42:41.639Z,19.57
2019-04-27T03:45:11.032Z,17.93
2019-04-27T03:47:40.927Z,18.87
2019-04-27T03:50:12.284Z,19.07
2019-04-27T03:52:49.981Z,19.17
2019-04-27T03:55:20.485Z,19.83
2019-04-27T03:58:02.856Z,20.87
2019-04-27T04:00:33.426Z,20.33
2019-04-27T04:03:02.527Z,20.00
2019-04-27T04:05:31.237Z,18.93
2019-04-27T04:08:00.575Z,19.60
2019-04-27T04:10:30.985Z,20.87
2019-04-27T04:13:06.800Z,21.53
2019-04-27T04:15:40.084Z,20.37
2019-04-27T04:18:09.785Z,21.03
2019-04-27T04:20:40.397Z,20.73
2019-04-27T04:23:10.599Z,20.73
2019-04-27T04:25:40.968Z,20.13
2019-04-27T04:28:10.195Z,20.40
2019-04-27T04:30:40.216Z,19.57
2019-04-27T04:33:10.120Z,19.53
2019-04-27T04:35:39.906Z,19.67
2019-04-27T04:38:10.408Z,19.20
2019-04-27T04:40:40.779Z,18.77
2019-04-27T04:43:19.717Z,18.73
2019-04-27T04:45:51.938Z,17.70
2019-04-27T04:48:21.401Z,18.77
2019-04-27T04:50:50.300Z,17.50
2019-04-27T04:53:20.557Z,17.13
2019-04-27T04:55:49.673Z,16.73
2019-04-27T04:58:21.024Z,16.73
2019-04-27T05:00:50.215Z,16.93
2019-04-27T05:03:21.390Z,16.07
2019-04-27T05:05:50.136Z,16.50
2019-04-27T05:08:19.109Z,14.80
2019-04-27T05:10:49.743Z,15.67
2019-04-27T05:13:19.307Z,15.60
2019-04-27T05:15:48.820Z,14.50
2019-04-27T05:18:19.146Z,14.83
2019-04-27T05:20:49.812Z,14.27
2019-04-27T05:23:18.742Z,14.43
2019-04-27T05:25:49.077Z,13.90
2019-04-27T05:28:18.737Z,13.60
2019-04-27T05:30:48.937Z,13.22
2019-04-27T05:33:18.711Z,14.98
2019-04-27T05:35:49.146Z,14.40
2019-04-27T05:38:19.295Z,14.40
2019-04-27T05:40:49.880Z,14.20
2019-04-27T05:43:20.392Z,14.18
2019-04-27T05:46:20.891Z,14.13
2019-04-27T05:48:50.027Z,15.15
2019-04-27T05:51:19.767Z,14.13
2019-04-27T05:53:49.547Z,14.70
2019-04-27T05:56:19.314Z,14.75
2019-04-27T05:58:49.106Z,14.87
2019-04-27T06:01:19.628Z,15.03
2019-04-27T06:03:49.789Z,15.33
2019-04-27T06:06:19.778Z,14.50
2019-04-27T06:08:49.485Z,14.18
2019-04-27T06:11:19.637Z,14.30
2019-04-27T06:13:50.414Z,13.90
2019-04-27T06:16:19.569Z,12.97
2019-04-27T06:18:49.327Z,13.18
2019-04-27T06:21:19.627Z,13.73
2019-04-27T06:23:48.753Z,14.45
2019-04-27T06:26:20.026Z,14.90
2019-04-27T06:28:48.047Z,15.75
2019-04-27T06:31:16.827Z,15.45
2019-04-27T06:33:45.539Z,15.75
2019-04-27T06:36:14.251Z,15.10
2019-04-27T06:38:42.952Z,16.05
2019-04-27T06:41:11.707Z,16.37
2019-04-27T06:43:40.667Z,15.85
2019-04-27T06:46:09.511Z,16.00
2019-04-27T06:48:39.494Z,15.55
2019-04-27T06:51:09.654Z,14.68
2019-04-27T06:53:39.486Z,14.90
2019-04-27T06:56:08.977Z,15.03
2019-04-27T06:58:38.922Z,14.28
2019-04-27T07:01:09.513Z,14.47
2019-04-27T07:03:39.504Z,14.50
2019-04-27T07:06:08.929Z,14.50
2019-04-27T07:08:39.932Z,13.75
2019-04-27T07:11:10.934Z,13.95
2019-04-27T07:13:39.044Z,14.03
2019-04-27T07:16:09.523Z,14.33
2019-04-27T07:18:39.713Z,13.13
2019-04-27T07:21:17.039Z,13.50
2019-04-27T07:23:40.535Z,12.73
2019-04-27T07:26:09.620Z,13.65
2019-04-27T07:28:39.219Z,12.68
2019-04-27T07:31:09.625Z,13.15
2019-04-27T07:33:39.553Z,12.43
2019-04-27T07:36:08.964Z,12.35
2019-04-27T07:38:39.394Z,12.63
2019-04-27T07:41:09.668Z,12.18
2019-04-27T07:43:42.856Z,12.68
2019-04-27T07:46:11.556Z,12.05
2019-04-27T07:48:40.191Z,12.07
2019-04-27T07:51:09.039Z,11.73
2019-04-27T07:53:38.966Z,11.40
2019-04-27T07:56:09.342Z,11.60
2019-04-27T07:58:39.576Z,10.93
2019-04-27T08:01:09.296Z,11.12
2019-04-27T08:03:39.049Z,11.90
2019-04-27T08:06:08.512Z,11.30
2019-04-27T08:08:39.657Z,11.93
2019-04-27T08:11:09.148Z,12.65
2019-04-27T08:13:39.387Z,11.18
2019-04-27T08:16:08.663Z,11.63
2019-04-27T08:18:37.496Z,11.75
2019-04-27T08:21:06.198Z,11.90
2019-04-27T08:23:34.907Z,11.33
2019-04-27T08:26:05.247Z,11.43
2019-04-27T08:28:41.675Z,12.15
2019-04-27T08:31:24.208Z,12.18
2019-04-27T08:33:52.929Z,11.63
2019-04-27T08:36:21.619Z,11.35
2019-04-27T08:38:50.362Z,11.60
2019-04-27T08:41:19.728Z,11.60
2019-04-27T08:43:49.391Z,11.73
2019-04-27T08:46:18.649Z,11.48
2019-04-27T08:48:48.994Z,10.88
2019-04-27T08:51:19.453Z,10.25
2019-04-27T08:53:49.986Z,10.38
2019-04-27T08:56:19.408Z,11.08
2019-04-27T08:58:49.678Z,11.35
2019-04-27T09:01:20.771Z,11.68
2019-04-27T09:03:49.534Z,11.53
2019-04-27T09:06:19.042Z,11.40
2019-04-27T09:08:49.731Z,10.80
2019-04-27T09:14:10.884Z,10.93
2019-04-27T09:16:57.204Z,10.98
2019-04-27T09:19:15.970Z,12.00
2019-04-27T09:22:13.378Z,11.38
2019-04-27T09:24:34.887Z,11.70
2019-04-27T09:27:03.769Z,11.85
2019-04-27T09:29:32.471Z,11.75
2019-04-27T09:32:01.835Z,11.93
2019-04-27T09:34:30.700Z,11.60
2019-04-27T09:36:59.403Z,10.98
2019-04-27T09:39:28.303Z,11.50
2019-04-27T09:41:57.280Z,10.35
2019-04-27T09:44:26.680Z,11.45
2019-04-27T09:46:56.097Z,10.40
2019-04-27T09:49:26.277Z,9.90
2019-04-27T09:51:55.705Z,10.80
2019-04-27T09:54:24.545Z,10.08
2019-04-27T09:56:53.239Z,9.48
2019-04-27T09:59:22.040Z,10.10
2019-04-27T10:01:50.741Z,10.40
2019-04-27T10:04:19.450Z,9.95
2019-04-27T10:06:48.872Z,9.33
2019-04-27T10:09:17.756Z,9.50
2019-04-27T10:11:46.469Z,9.93
2019-04-27T10:14:16.336Z,9.83
2019-04-27T10:16:46.902Z,9.83
2019-04-27T10:19:27.907Z,9.50
2019-04-27T10:21:46.736Z,9.28
2019-04-27T10:24:15.682Z,9.83
2019-04-27T10:27:05.829Z,9.58
2019-04-27T10:29:35.569Z,11.12
2019-04-27T10:32:06.185Z,10.40
2019-04-27T10:34:35.071Z,10.55
2019-04-27T10:37:03.782Z,10.30
2019-04-27T10:39:32.486Z,9.45
2019-04-27T10:42:01.183Z,10.48
2019-04-27T10:44:31.128Z,10.30
2019-04-27T10:46:59.980Z,10.35
2019-04-27T10:49:28.659Z,10.43
2019-04-27T10:51:57.359Z,10.32
2019-04-27T10:54:26.127Z,9.80
2019-04-27T10:56:55.893Z,10.53
2019-04-27T10:59:24.735Z,10.35
2019-04-27T11:01:53.451Z,10.75
2019-04-27T11:04:39.071Z,11.35
2019-04-27T11:07:09.423Z,10.20
2019-04-27T11:09:38.128Z,10.50
2019-04-27T11:12:07.076Z,10.38
2019-04-27T11:14:35.746Z,11.15
2019-04-27T11:17:06.429Z,10.23
2019-04-27T11:19:35.743Z,10.50
2019-04-27T11:22:07.163Z,11.57
2019-04-27T11:24:35.009Z,10.65
2019-04-27T11:27:05.764Z,12.28
2019-04-27T11:29:35.939Z,11.18
2019-04-27T11:32:05.728Z,11.05
2019-04-27T11:34:52.741Z,10.63
2019-04-27T11:37:23.079Z,11.22
2019-04-27T11:39:51.789Z,9.90
2019-04-27T11:42:20.484Z,10.03
2019-04-27T11:44:49.202Z,10.90
2019-04-27T11:47:17.895Z,9.75
2019-04-27T11:49:46.632Z,8.78
2019-04-27T11:52:15.762Z,8.93
2019-04-27T11:54:45.766Z,8.90
2019-04-27T11:57:14.535Z,8.53
2019-04-27T11:59:43.241Z,8.73
2019-04-27T12:02:12.011Z,8.15
2019-04-27T12:04:40.709Z,8.28
2019-04-27T12:07:09.440Z,8.40
2019-04-27T12:09:38.135Z,8.28
2019-04-27T12:12:13.655Z,8.15
2019-04-27T12:14:37.195Z,8.40
2019-04-27T12:17:06.362Z,8.18
2019-04-27T12:19:35.641Z,8.00
2019-04-27T12:22:06.192Z,8.67
2019-04-27T12:24:35.619Z,8.38
2019-04-27T12:27:22.351Z,8.95
2019-04-27T12:30:09.282Z,9.48
2019-04-27T12:32:38.060Z,9.80
2019-04-27T12:35:07.064Z,9.45
2019-04-27T12:37:35.828Z,9.38
2019-04-27T12:40:06.669Z,9.43
2019-04-27T12:42:36.388Z,8.65
2019-04-27T12:45:08.804Z,8.70
2019-04-27T12:47:37.508Z,9.05
2019-04-27T12:50:11.113Z,8.93
2019-04-27T12:52:40.587Z,8.80
2019-04-27T12:55:20.295Z,9.30
2019-04-27T12:57:53.620Z,9.25
2019-04-27T13:00:29.966Z,8.88
2019-04-27T13:02:58.659Z,8.68
2019-04-27T13:05:27.356Z,9.80
2019-04-27T13:07:56.063Z,10.13
2019-04-27T13:10:24.867Z,10.03
2019-04-27T13:12:53.571Z,10.80
2019-04-27T13:15:22.280Z,10.85
2019-04-27T13:17:50.979Z,10.90
2019-04-27T13:20:19.883Z,10.90
2019-04-27T13:22:48.600Z,10.88
2019-04-27T13:25:17.312Z,11.07
2019-04-27T13:27:47.799Z,12.10
2019-04-27T13:30:16.680Z,11.47
2019-04-27T13:32:45.885Z,12.13
2019-04-27T13:35:15.818Z,12.97
2019-04-27T13:37:46.274Z,13.67
2019-04-27T13:40:17.014Z,13.37
2019-04-27T13:42:53.821Z,13.13
2019-04-27T13:45:42.597Z,13.27
2019-04-27T13:48:18.484Z,12.77
2019-04-27T13:50:48.823Z,10.97
2019-04-27T13:53:17.535Z,12.20
2019-04-27T13:55:46.724Z,11.23
2019-04-27T13:58:16.595Z,11.77
2019-04-27T14:00:45.309Z,11.27
2019-04-27T14:03:14.663Z,11.63
2019-04-27T14:05:44.388Z,11.80
2019-04-27T14:08:13.083Z,11.10
2019-04-27T14:10:42.295Z,10.93
2019-04-27T14:13:11.188Z,10.78
2019-04-27T14:15:39.907Z,10.93
2019-04-27T14:18:08.627Z,10.80
2019-04-27T14:20:38.938Z,10.30
2019-04-27T14:23:12.183Z,10.50
2019-04-27T14:25:40.887Z,10.15
2019-04-27T14:28:09.595Z,9.90
2019-04-27T14:30:40.009Z,10.43
2019-04-27T14:33:08.666Z,10.00
2019-04-27T14:35:37.351Z,9.73
2019-04-27T14:38:06.059Z,8.93
2019-04-27T14:40:34.761Z,9.87
2019-04-27T14:43:03.464Z,9.37
2019-04-27T14:45:32.236Z,8.93
2019-04-27T14:48:00.931Z,9.25
2019-04-27T14:50:29.675Z,8.83
2019-04-27T14:52:59.052Z,8.67
2019-04-27T14:55:28.283Z,8.70
2019-04-27T14:57:58.610Z,8.33
2019-04-27T15:00:28.800Z,8.97
2019-04-27T15:02:59.131Z,8.58
2019-04-27T15:05:27.995Z,8.58
2019-04-27T15:07:56.695Z,8.80
2019-04-27T15:10:27.073Z,9.10
2019-04-27T15:15:42.011Z,8.77
2019-04-27T15:18:10.720Z,8.97
2019-04-27T15:20:46.292Z,9.27
2019-04-27T15:23:14.431Z,8.95
2019-04-27T15:25:46.806Z,9.37
2019-04-27T15:28:17.551Z,9.13
2019-04-27T15:30:48.079Z,8.87
2019-04-27T15:33:30.451Z,8.70
2019-04-27T15:36:20.978Z,8.63
2019-04-27T15:39:01.388Z,8.88
2019-04-27T15:41:34.732Z,8.73
2019-04-27T15:44:05.921Z,8.30
2019-04-27T15:46:34.923Z,8.93
2019-04-27T15:49:09.821Z,8.83
2019-04-27T15:51:34.203Z,8.53
2019-04-27T15:54:02.903Z,8.70
2019-04-27T15:56:35.229Z,8.93
2019-04-27T15:59:01.959Z,9.27
2019-04-27T16:01:35.763Z,8.47
2019-04-27T16:04:02.445Z,9.47
2019-04-27T16:06:31.415Z,8.77
2019-04-27T16:09:00.120Z,8.83
2019-04-27T16:11:28.811Z,8.77
2019-04-27T16:13:58.739Z,9.27
2019-04-27T16:16:29.222Z,9.07
2019-04-27T16:18:59.386Z,9.33
2019-04-27T16:21:30.124Z,8.93
2019-04-27T16:23:58.560Z,8.80
2019-04-27T16:26:28.506Z,8.97
2019-04-27T16:28:58.110Z,8.97
2019-04-27T16:31:30.245Z,8.77
2019-04-27T16:33:59.264Z,9.13
2019-04-27T16:36:28.829Z,9.30
2019-04-27T16:39:03.693Z,9.30
2019-04-27T16:41:33.041Z,10.03
2019-04-27T16:44:06.815Z,10.97
2019-04-27T16:46:35.004Z,11.07
2019-04-27T16:49:07.401Z,10.70
2019-04-27T16:51:36.904Z,11.20
2019-04-27T16:54:04.712Z,10.73
2019-04-27T16:56:33.443Z,10.10
2019-04-27T16:59:20.756Z,10.33
2019-04-27T17:01:32.567Z,10.07
2019-04-27T17:04:01.276Z,9.97
2019-04-27T17:06:29.967Z,9.90
2019-04-27T17:09:05.715Z,10.00
2019-04-27T17:11:29.836Z,9.67
2019-04-27T17:14:00.419Z,10.53
2019-04-27T17:16:43.068Z,10.33
2019-04-27T17:19:16.390Z,10.50
2019-04-27T17:21:45.094Z,9.50
2019-04-27T17:24:15.435Z,10.00
2019-04-27T17:26:44.146Z,9.90
2019-04-27T17:29:20.232Z,9.73
2019-04-27T17:31:50.634Z,9.43
2019-04-27T17:34:25.269Z,9.00
2019-04-27T17:36:55.134Z,9.90
2019-04-27T17:39:23.469Z,9.73
2019-04-27T17:41:52.819Z,9.70
2019-04-27T17:44:23.132Z,9.20
2019-04-27T17:46:51.900Z,9.33
2019-04-27T17:49:20.596Z,10.07
2019-04-27T17:51:49.303Z,9.80
2019-04-27T17:54:18.260Z,10.13
2019-04-27T17:56:49.362Z,9.70
2019-04-27T17:59:20.669Z,10.07
2019-04-27T18:01:49.472Z,9.70
2019-04-27T18:04:18.578Z,9.37
2019-04-27T18:06:48.380Z,9.97
2019-04-27T18:09:18.740Z,9.73
2019-04-27T18:11:48.570Z,9.07
2019-04-27T18:14:19.205Z,10.47
2019-04-27T18:16:48.287Z,10.13
2019-04-27T18:19:18.773Z,9.47
2019-04-27T18:22:00.811Z,9.50
2019-04-27T18:24:30.309Z,9.40
2019-04-27T18:27:18.224Z,9.27
2019-04-27T18:29:46.375Z,9.20
2019-04-27T18:32:15.135Z,9.63
2019-04-27T18:34:45.305Z,10.50
2019-04-27T18:37:14.361Z,9.83
2019-04-27T18:39:45.422Z,9.70
2019-04-27T18:42:14.884Z,10.33
2019-04-27T18:44:43.591Z,9.70
2019-04-27T18:47:12.287Z,9.83
2019-04-27T18:49:55.081Z,9.73
2019-04-27T18:52:40.698Z,9.17
2019-04-27T18:55:10.983Z,9.13
2019-04-27T18:57:38.749Z,9.23
2019-04-27T19:00:10.228Z,8.93
2019-04-27T19:02:39.250Z,9.30
2019-04-27T19:05:08.861Z,8.63
2019-04-27T19:07:38.187Z,9.80
2019-04-27T19:10:08.941Z,9.57
2019-04-27T19:12:39.443Z,11.23
2019-04-27T19:15:08.603Z,10.33
2019-04-27T19:17:38.679Z,10.50
2019-04-27T19:20:09.889Z,10.73
2019-04-27T19:22:38.677Z,11.17
2019-04-27T19:25:09.749Z,10.73
2019-04-27T19:27:52.167Z,11.17
2019-04-27T19:30:34.687Z,10.23
2019-04-27T19:33:03.567Z,10.60
2019-04-27T19:35:32.271Z,10.80
2019-04-27T19:38:00.915Z,11.20
2019-04-27T19:40:29.631Z,11.37
2019-04-27T19:42:58.865Z,10.93
2019-04-27T19:45:29.233Z,11.60
2019-04-27T19:47:58.039Z,11.23
2019-04-27T19:50:28.487Z,11.20
2019-04-27T19:52:58.706Z,11.33
2019-04-27T19:55:28.210Z,10.70
2019-04-27T19:57:57.033Z,11.47
2019-04-27T20:00:27.372Z,10.77
2019-04-27T20:02:56.151Z,10.67
2019-04-27T20:05:24.859Z,10.07
2019-04-27T20:07:53.647Z,11.03
2019-04-27T20:10:22.516Z,9.90
2019-04-27T20:12:51.212Z,10.53
2019-04-27T20:15:19.923Z,10.50
2019-04-27T20:17:48.544Z,10.23
2019-04-27T20:20:17.250Z,9.53
2019-04-27T20:22:45.959Z,10.37
2019-04-27T20:25:14.863Z,10.47
2019-04-27T20:27:49.531Z,9.93
2019-04-27T20:30:14.574Z,10.03
2019-04-27T20:32:43.287Z,10.60
2019-04-27T20:35:11.991Z,10.70
2019-04-27T20:37:41.511Z,10.90
2019-04-27T20:40:11.625Z,10.60
2019-04-27T20:42:41.546Z,10.23
2019-04-27T20:45:11.994Z,10.60
2019-04-27T20:47:40.811Z,10.73
2019-04-27T20:50:09.604Z,10.50
2019-04-27T20:52:42.789Z,11.37
2019-04-27T20:55:12.767Z,10.47
2019-04-27T20:57:41.737Z,10.53
2019-04-27T21:00:12.055Z,10.83
2019-04-27T21:02:42.400Z,10.60
2019-04-27T21:05:24.631Z,10.43
2019-04-27T21:08:06.788Z,10.97
2019-04-27T21:10:34.587Z,11.03
2019-04-27T21:13:03.323Z,11.30
2019-04-27T21:15:32.023Z,10.63
2019-04-27T21:18:01.283Z,11.50
2019-04-27T21:20:30.982Z,11.40
2019-04-27T21:23:01.816Z,11.37
2019-04-27T21:25:31.572Z,11.60
2019-04-27T21:28:14.865Z,11.20
2019-04-27T21:30:31.322Z,11.50
2019-04-27T21:33:01.107Z,11.47
2019-04-27T21:35:29.974Z,10.93
2019-04-27T21:37:58.745Z,11.43
2019-04-27T21:40:27.547Z,10.50
2019-04-27T21:42:56.167Z,11.73
2019-04-27T21:45:24.863Z,11.40
2019-04-27T21:47:53.564Z,11.37
2019-04-27T21:50:23.173Z,11.47
2019-04-27T21:53:00.620Z,11.77
2019-04-27T21:55:31.535Z,10.97
2019-04-27T21:58:01.476Z,11.53
2019-04-27T22:00:42.513Z,11.03
2019-04-27T22:03:13.703Z,10.87
2019-04-27T22:05:42.663Z,11.60
2019-04-27T22:08:11.857Z,10.73
2019-04-27T22:10:40.966Z,11.83
2019-04-27T22:13:09.673Z,11.37
2019-04-27T22:15:38.446Z,11.03
2019-04-27T22:18:07.143Z,11.23
2019-04-27T22:20:36.120Z,11.63
2019-04-27T22:23:06.654Z,11.27
2019-04-27T22:25:37.004Z,11.50
2019-04-27T22:28:05.707Z,11.37
2019-04-27T22:30:53.915Z,10.90
2019-04-27T22:33:22.607Z,11.47
2019-04-27T22:35:51.839Z,12.60
2019-04-27T22:38:20.588Z,12.37
2019-04-27T22:40:59.781Z,11.80
2019-04-27T22:43:42.104Z,12.67
2019-04-27T22:46:15.459Z,12.13
2019-04-27T22:48:44.171Z,12.37
2019-04-27T22:51:12.867Z,12.57
2019-04-27T22:53:41.572Z,11.73
2019-04-27T22:56:22.275Z,12.17
2019-04-27T22:59:03.999Z,11.60
2019-04-27T23:01:37.356Z,11.83
2019-04-27T23:04:07.699Z,11.90
2019-04-27T23:06:36.395Z,12.03
2019-04-27T23:09:06.668Z,13.27
2019-04-27T23:11:35.411Z,12.80
2019-04-27T23:14:04.340Z,11.60
2019-04-27T23:16:34.603Z,12.60
2019-04-27T23:19:03.298Z,13.60
2019-04-27T23:21:32.005Z,12.90
2019-04-27T23:24:01.857Z,12.97
2019-04-27T23:26:31.335Z,13.43
2019-04-27T23:29:11.062Z,12.77
2019-04-27T23:31:38.035Z,12.93
2019-04-27T23:34:07.067Z,13.27
2019-04-27T23:36:35.770Z,12.33
2019-04-27T23:39:06.373Z,12.90
2019-04-27T23:41:35.071Z,13.23
2019-04-27T23:44:03.780Z,13.17
2019-04-27T23:46:32.487Z,13.30
2019-04-27T23:49:01.555Z,13.17
2019-04-27T23:51:37.663Z,12.83
2019-04-27T23:54:06.356Z,14.10
2019-04-27T23:56:35.051Z,13.47
2019-04-27T23:59:03.858Z,12.77
